Time;durP1;ratioP1;P1;durP2;ratioP2;P2;SDS_P1;SDS_P2;PMS_P1;PMS_P2;Temp;Humidity;BMP_temperature;BMP_pressure;BME280_temperature;BME280_humidity;BME280_pressure;Samples;Min_cycle;Max_cycle;Signal;HPM_P1;HPM_P2
2022/07/23 00:03:29;;;;;;;6.13;4.90;;;;;;;;;;10432675;28;20129;-70
2022/07/23 00:08:30;;;;;;;7.35;4.95;;;;;;;22.59;59.46;100052.16;10411093;28;20060;-72
2022/07/23 00:13:31;;;;;;;7.90;4.85;;;;;;;22.49;59.61;100046.31;10430865;28;20053;-70
2022/07/23 00:18:33;;;;;;;9.02;5.20;;;;;;;22.35;60.12;100029.19;10425013;28;20067;-69
2022/07/23 00:23:34;;;;;;;5.57;4.40;;;;;;;22.33;60.34;100038.56;10423699;28;20150;-70
2022/07/23 00:28:36;;;;;;;4.75;4.35;;;;;;;22.21;60.87;100032.88;10422096;28;20057;-70
2022/07/23 00:33:37;;;;;;;6.22;4.80;;;;;;;22.15;61.10;100053.50;10427374;28;20157;-70
2022/07/23 00:38:39;;;;;;;5.65;4.80;;;;;;;22.04;61.70;100059.53;10431326;28;20152;-70
2022/07/23 00:43:40;;;;;;;5.30;4.80;;;;;;;22.25;61.05;100066.69;10428303;28;20052;-70
2022/07/23 00:48:42;;;;;;;6.03;5.35;;;;;;;22.23;61.05;100049.75;10437306;28;20167;-69
2022/07/23 00:53:44;;;;;;;6.30;5.70;;;;;;;22.11;61.73;100043.28;10421320;28;20511;-70
2022/07/23 00:58:46;;;;;;;5.37;4.40;;;;;;;22.05;62.02;100031.38;10428334;28;20055;-70
2022/07/23 01:03:47;;;;;;;5.80;5.15;;;;;;;21.92;62.59;100045.72;10424080;28;20095;-70
2022/07/23 01:08:49;;;;;;;4.78;4.38;;;;;;;21.86;63.08;100044.66;10438767;28;20049;-69
2022/07/23 01:13:50;;;;;;;5.32;4.82;;;;;;;21.80;63.34;100036.50;10425380;28;20063;-70
2022/07/23 01:18:52;;;;;;;5.70;5.10;;;;;;;21.81;63.91;100033.59;10437069;28;20055;-69
2022/07/23 01:23:53;;;;;;;6.97;4.93;;;;;;;21.70;63.71;100047.72;10435775;28;20126;-71
2022/07/23 01:28:54;;;;;;;5.43;4.93;;;;;;;21.70;63.69;100059.38;10438239;28;20076;-70
2022/07/23 01:33:56;;;;;;;5.55;5.00;;;;;;;21.70;63.96;100070.22;10442695;28;20136;-70
2022/07/23 01:38:57;;;;;;;5.43;4.70;;;;;;;21.84;63.86;100087.38;10439388;28;20118;-71
2022/07/23 01:44:00;;;;;;;5.43;4.90;;;;;;;21.94;63.54;100081.56;10435908;28;20099;-72
2022/07/23 01:49:01;;;;;;;5.50;4.72;;;;;;;21.99;63.31;100067.41;10436392;28;20147;-70
2022/07/23 01:54:03;;;;;;;6.00;5.40;;;;;;;22.13;62.87;100049.31;10439178;28;20064;-71
2022/07/23 01:59:05;;;;;;;5.00;4.60;;;;;;;22.12;62.88;100010.53;10433489;28;20045;-71
2022/07/23 02:04:06;;;;;;;5.75;4.93;;;;;;;22.03;63.25;100039.72;10417961;28;20395;-71
2022/07/23 02:09:07;;;;;;;5.00;4.53;;;;;;;22.03;63.11;100060.56;10434956;28;20120;-72
2022/07/23 02:14:09;;;;;;;6.60;4.72;;;;;;;21.68;63.99;100052.50;10434184;28;20056;-71
2022/07/23 02:19:10;;;;;;;8.27;4.82;;;;;;;21.52;65.73;100068.03;10419767;28;20686;-72
2022/07/23 02:24:12;;;;;;;6.95;5.35;;;;;;;21.82;65.04;100085.91;10437157;28;20555;-72
2022/07/23 02:29:13;;;;;;;5.80;5.22;;;;;;;21.89;64.88;100095.75;10433395;28;20158;-71
2022/07/23 02:34:15;;;;;;;6.45;5.30;;;;;;;21.74;65.71;100092.34;10416062;28;20273;-70
2022/07/23 02:39:16;;;;;;;5.10;4.63;;;;;;;21.83;64.96;100074.03;10434334;28;20057;-70
2022/07/23 02:44:17;;;;;;;5.45;4.90;;;;;;;21.96;64.58;100084.09;10434182;28;20120;-71
2022/07/23 02:49:19;;;;;;;5.72;5.13;;;;;;;21.98;64.35;100082.84;10435304;28;20063;-70
2022/07/23 02:54:20;;;;;;;5.70;5.13;;;;;;;22.00;64.49;100090.78;10434679;28;20955;-70
2022/07/23 02:59:22;;;;;;;7.03;5.30;;;;;;;22.01;64.41;100092.47;10435595;28;20059;-71
2022/07/23 03:04:23;;;;;;;7.20;5.28;;;;;;;22.00;64.24;100078.06;10431328;28;20597;-72
2022/07/23 03:09:24;;;;;;;4.93;4.40;;;;;;;21.96;64.14;100084.09;10414953;28;20064;-72
2022/07/23 03:14:27;;;;;;;6.05;5.55;;;;;;;21.93;64.62;100093.44;10430385;28;20196;-72
2022/07/23 03:19:28;;;;;;;5.97;5.30;;;;;;;21.68;65.39;100079.59;10430492;28;20123;-70
2022/07/23 03:29:52;;;;;;;7.40;5.30;;;;;;;21.70;65.95;100082.94;10430769;28;20053;-71
2022/07/23 03:34:53;;;;;;;5.32;4.82;;;;;;;21.73;65.28;100084.41;10431644;28;20131;-70
2022/07/23 03:39:55;;;;;;;6.10;5.40;;;;;;;21.62;65.72;100080.38;10430280;28;20045;-71
2022/07/23 03:44:57;;;;;;;5.82;5.30;;;;;;;21.50;66.45;100102.63;10433430;28;20064;-72
2022/07/23 03:49:58;;;;;;;6.22;5.68;;;;;;;21.51;66.05;100111.56;10430819;28;20171;-70
2022/07/23 03:54:59;;;;;;;7.40;5.90;;;;;;;21.32;67.24;100110.38;10429684;28;20055;-71
2022/07/23 04:00:03;;;;;;;6.47;5.43;;;;;;;21.45;67.06;100131.28;10423596;28;20055;-71
2022/07/23 04:05:05;;;;;;;6.00;5.30;;;;;;;21.53;66.25;100132.00;10400890;28;20048;-71
2022/07/23 04:10:07;;;;;;;6.57;5.97;;;;;;;21.35;67.09;100120.81;10414796;28;20056;-71
2022/07/23 04:15:09;;;;;;;6.70;5.82;;;;;;;21.37;66.66;100134.97;10409436;28;20119;-73
2022/07/23 04:20:11;;;;;;;6.70;6.10;;;;;;;21.22;67.93;100136.97;10427650;28;20045;-72
2022/07/23 04:25:13;;;;;;;6.18;5.57;;;;;;;21.22;67.24;100128.84;10422724;28;20138;-71
2022/07/23 04:30:14;;;;;;;6.20;5.60;;;;;;;20.95;68.44;100131.31;10425507;28;20086;-70
2022/07/23 04:35:16;;;;;;;7.38;6.15;;;;;;;20.89;68.20;100149.16;10426882;28;21537;-71
2022/07/23 04:40:17;;;;;;;5.90;5.35;;;;;;;20.62;68.23;100156.97;10426520;28;20049;-72
2022/07/23 04:45:19;;;;;;;7.03;6.32;;;;;;;20.64;69.47;100159.47;10410474;28;20526;-73
2022/07/23 04:50:21;;;;;;;6.38;5.72;;;;;;;20.87;68.88;100162.06;10411580;28;20059;-72
2022/07/23 04:55:23;;;;;;;6.45;5.85;;;;;;;20.97;68.11;100180.66;10425942;28;20064;-73
2022/07/23 05:00:24;;;;;;;6.22;5.72;;;;;;;21.23;66.40;100195.44;10414315;28;20061;-72
2022/07/23 05:05:26;;;;;;;7.07;6.45;;;;;;;20.92;65.78;100202.88;10415597;28;20048;-72
2022/07/23 05:10:27;;;;;;;7.45;6.75;;;;;;;20.86;66.75;100197.41;10412974;28;20643;-72
2022/07/23 05:15:29;;;;;;;7.32;6.70;;;;;;;20.88;66.05;100207.00;10432062;28;20500;-71
2022/07/23 05:20:30;;;;;;;6.63;6.05;;;;;;;20.73;66.52;100204.38;10428715;28;20044;-71
2022/07/23 05:25:32;;;;;;;7.00;6.40;;;;;;;20.76;66.32;100212.09;10414510;28;20057;-73
2022/07/23 05:30:33;;;;;;;7.35;6.65;;;;;;;20.92;65.86;100205.59;10422893;28;20044;-73
2022/07/23 05:35:35;;;;;;;7.80;7.10;;;;;;;21.01;66.04;100206.28;10434901;28;20134;-73
2022/07/23 05:40:36;;;;;;;6.47;5.88;;;;;;;21.19;65.17;100214.78;10440334;28;20045;-73
2022/07/23 05:45:38;;;;;;;8.88;6.80;;;;;;;21.16;64.40;100226.00;10424707;28;20057;-73
2022/07/23 05:50:39;;;;;;;7.20;6.50;;;;;;;21.33;63.60;100236.56;10439883;28;20136;-74
2022/07/23 05:55:40;;;;;;;7.45;6.75;;;;;;;21.46;62.35;100242.09;10427450;28;20054;-73
2022/07/23 06:00:42;;;;;;;7.55;6.80;;;;;;;21.24;63.69;100243.16;10419140;28;20133;-71
2022/07/23 06:05:43;;;;;;;8.73;7.55;;;;;;;21.47;62.31;100232.13;10431106;28;20059;-69
2022/07/23 06:10:45;;;;;;;7.88;6.53;;;;;;;21.50;61.92;100253.44;10431672;28;20540;-70
2022/07/23 06:15:46;;;;;;;6.65;5.60;;;;;;;21.41;61.41;100247.28;10419031;28;20063;-71
2022/07/23 06:20:48;;;;;;;5.63;5.13;;;;;;;21.52;60.90;100252.19;10433934;28;20051;-73
2022/07/23 06:25:51;;;;;;;7.95;6.07;;;;;;;21.70;60.20;100249.00;10436807;28;20044;-73
2022/07/23 06:30:53;;;;;;;6.13;5.63;;;;;;;21.93;60.56;100241.66;10435295;28;20052;-73
2022/07/23 06:35:55;;;;;;;7.03;5.82;;;;;;;21.69;59.45;100246.47;10435844;28;20508;-76
2022/07/23 06:40:57;;;;;;;7.03;5.18;;;;;;;21.96;59.86;100243.97;10436506;28;20048;-73
2022/07/23 06:45:58;;;;;;;6.53;5.57;;;;;;;21.96;59.88;100241.25;10415079;28;20049;-73
2022/07/23 06:51:02;;;;;;;5.57;4.80;;;;;;;22.33;58.00;100250.06;10407591;28;20053;-72
2022/07/23 06:56:04;;;;;;;5.50;5.00;;;;;;;22.58;57.78;100248.50;10439749;28;20128;-72
2022/07/23 07:01:05;;;;;;;7.07;5.88;;;;;;;22.55;55.88;100242.66;10434652;28;20422;-72
2022/07/23 07:06:07;;;;;;;5.35;4.80;;;;;;;22.67;57.08;100248.31;10435579;28;20056;-74
2022/07/23 07:11:09;;;;;;;7.20;5.00;;;;;;;23.06;57.20;100258.47;10433731;28;20576;-75
2022/07/23 07:16:10;;;;;;;4.50;4.10;;;;;;;23.32;55.00;100256.03;10439207;28;20116;-73
2022/07/23 07:21:12;;;;;;;6.15;3.95;;;;;;;23.49;54.03;100268.13;10430607;28;20060;-74
2022/07/23 07:26:13;;;;;;;4.93;4.43;;;;;;;23.29;52.69;100279.81;10415771;28;20139;-74
2022/07/23 07:31:15;;;;;;;5.72;3.80;;;;;;;23.49;52.75;100287.16;10418540;28;20155;-73
2022/07/23 07:36:16;;;;;;;4.47;3.83;;;;;;;23.69;52.51;100280.88;10421119;28;20216;-73
2022/07/23 07:41:23;;;;;;;4.97;3.95;;;;;;;23.91;52.18;100281.53;10423827;28;20099;-73
2022/07/23 07:46:27;;;;;;;6.00;4.25;;;;;;;24.16;50.77;100285.25;10436551;28;20714;-74
2022/07/23 07:51:28;;;;;;;6.35;4.60;;;;;;;24.22;52.42;100297.19;10433139;28;20061;-74
2022/07/23 07:56:30;;;;;;;4.63;3.75;;;;;;;24.51;51.67;100300.44;10419291;28;20064;-74
2022/07/23 08:01:32;;;;;;;6.85;4.25;;;;;;;24.82;51.47;100305.19;10430981;28;20586;-74
2022/07/23 08:06:34;;;;;;;5.47;3.58;;;;;;;25.06;50.02;100314.47;10419676;28;20068;-73
2022/07/23 08:11:35;;;;;;;5.68;4.35;;;;;;;24.72;49.85;100320.31;10415837;28;20886;-73
2022/07/23 08:16:37;;;;;;;5.53;4.47;;;;;;;24.79;49.99;100315.69;10431192;28;20059;-72
2022/07/23 08:21:58;;;;;;;4.60;4.10;;;;;;;25.13;49.89;100308.16;10425005;28;20048;-75
2022/07/23 08:26:59;;;;;;;4.30;3.65;;;;;;;25.56;49.22;100313.78;10433464;28;20116;-74
2022/07/23 08:32:01;;;;;;;4.35;4.05;;;;;;;25.34;48.51;100313.31;10424350;28;20220;-73
2022/07/23 08:37:22;;;;;;;4.32;3.92;;;;;;;24.95;49.85;100325.22;10426004;28;20052;-72
2022/07/23 08:42:25;;;;;;;4.03;3.63;;;;;;;25.14;49.68;100340.63;10415969;28;20058;-74
2022/07/23 08:47:26;;;;;;;4.03;3.55;;;;;;;25.48;48.85;100335.84;10428394;28;20122;-74
2022/07/23 08:52:30;;;;;;;4.70;4.30;;;;;;;25.54;47.99;100343.16;10417944;28;20112;-73
2022/07/23 08:57:32;;;;;;;4.67;4.07;;;;;;;25.32;49.28;100337.19;10425546;28;20052;-74
2022/07/23 09:02:40;;;;;;;4.85;3.92;;;;;;;26.16;47.93;100333.44;10428454;28;20371;-74
2022/07/23 09:08:03;;;;;;;4.97;3.55;;;;;;;26.59;46.48;100332.59;10431182;28;20105;-74
2022/07/23 09:13:04;;;;;;;5.07;3.63;;;;;;;26.97;45.43;100326.06;10438843;28;20409;-74
2022/07/23 09:18:06;;;;;;;4.72;4.03;;;;;;;27.31;43.45;100326.44;10437849;28;20115;-74
2022/07/23 09:23:07;;;;;;;4.70;3.45;;;;;;;27.31;44.16;100315.50;10423880;28;20041;-74
2022/07/23 09:28:13;;;;;;;6.65;4.30;;;;;;;27.64;42.05;100306.81;10436861;28;20056;-74
2022/07/23 09:33:15;;;;;;;5.03;3.78;;;;;;;28.10;42.57;100322.69;10438006;28;20076;-74
2022/07/23 09:38:18;;;;;;;4.68;3.60;;;;;;;27.95;40.27;100320.38;10441078;28;20072;-74
2022/07/23 09:43:28;;;;;;;3.72;3.35;;;;;;;27.95;40.80;100336.81;10425494;28;20063;-73
2022/07/23 09:48:35;;;;;;;4.00;3.67;;;;;;;28.76;39.63;100326.06;10437213;28;20045;-74
2022/07/23 09:53:36;;;;;;;3.42;3.05;;;;;;;29.26;38.95;100328.19;10437743;28;20049;-74
2022/07/23 09:58:43;;;;;;;3.17;2.75;;;;;;;29.89;36.35;100330.94;10433437;28;20053;-74
2022/07/23 10:03:46;;;;;;;4.32;3.40;;;;;;;30.16;35.22;100324.72;10426515;28;20148;-73
2022/07/23 10:08:49;;;;;;;3.47;3.17;;;;;;;30.17;34.95;100326.41;10435476;28;20040;-74
2022/07/23 10:13:59;;;;;;;4.07;3.40;;;;;;;30.07;35.24;100328.97;10439136;28;20143;-73
2022/07/23 10:19:02;;;;;;;3.80;2.97;;;;;;;30.04;36.24;100319.38;10443460;28;20051;-74
2022/07/23 10:24:18;;;;;;;3.13;2.78;;;;;;;30.54;36.01;100323.09;10446551;28;20053;-74
2022/07/23 10:29:37;;;;;;;3.40;3.20;;;;;;;30.52;34.88;100329.94;10438315;28;20067;-70
2022/07/23 10:34:39;;;;;;;3.63;2.72;;;;;;;30.78;34.65;100322.84;10443677;28;20049;-74
2022/07/23 10:39:40;;;;;;;3.78;3.47;;;;;;;31.37;34.17;100311.94;10441171;28;20045;-72
2022/07/23 10:44:47;;;;;;;3.70;3.30;;;;;;;30.90;34.29;100325.47;10423744;28;20055;-73
2022/07/23 10:49:48;;;;;;;4.63;4.22;;;;;;;30.53;34.68;100318.69;10425978;28;20665;-74
2022/07/23 10:54:53;;;;;;;3.90;3.42;;;;;;;30.66;34.58;100310.06;10435816;28;20127;-74
2022/07/23 11:00:11;;;;;;;3.55;3.20;;;;;;;30.89;33.28;100301.81;10414804;28;20059;-73
2022/07/23 11:05:16;;;;;;;2.95;2.75;;;;;;;31.32;33.22;100300.09;10430291;28;20044;-74
2022/07/23 11:10:50;;;;;;;3.80;3.00;;;;;;;31.98;31.78;100288.81;10431346;28;20114;-73
2022/07/23 11:16:01;;;;;;;4.60;3.13;;;;;;;31.91;32.09;100290.97;10414841;28;20047;-74
2022/07/23 11:21:31;;;;;;;3.50;3.13;;;;;;;32.24;30.90;100305.50;10413785;28;20105;-74
2022/07/23 11:26:39;;;;;;;3.42;3.13;;;;;;;32.40;32.05;100296.22;10431802;28;20040;-73
2022/07/23 11:31:52;;;;;;;2.78;2.38;;;;;;;32.11;30.32;100286.72;10435152;28;20128;-74
2022/07/23 11:36:54;;;;;;;3.72;2.80;;;;;;;31.70;31.12;100285.31;10435162;28;20036;-73
2022/07/23 11:41:56;;;;;;;;;;;;;;;31.65;31.35;100282.53;10433720;28;20226;-75
2022/07/23 11:47:00;;;;;;;3.28;3.00;;;;;;;32.01;30.21;100277.28;10428770;28;20015;-75
2022/07/23 11:52:13;;;;;;;3.40;3.20;;;;;;;32.28;30.39;100262.59;10433860;28;20080;-74
2022/07/23 11:57:15;;;;;;;5.45;2.47;;;;;;;32.45;30.72;100270.63;10430443;28;20078;-73
2022/07/23 12:02:16;;;;;;;3.28;2.97;;;;;;;31.87;30.46;100273.31;10424497;28;20114;-73
2022/07/23 12:07:30;;;;;;;;;;;;;;;31.95;30.87;100264.56;10426470;28;20048;-75
2022/07/23 12:12:40;;;;;;;4.03;3.38;;;;;;;31.61;30.39;100264.06;10413683;28;20450;-74
2022/07/23 12:17:45;;;;;;;3.00;2.70;;;;;;;31.77;30.72;100256.72;10427820;28;20131;-75
2022/07/23 12:22:56;;;;;;;4.53;3.00;;;;;;;32.33;30.65;100256.25;10427607;28;20047;-73
2022/07/23 12:28:06;;;;;;;4.18;3.65;;;;;;;32.21;29.75;100256.47;10434594;28;20127;-74
2022/07/23 12:33:10;;;;;;;3.53;3.10;;;;;;;31.55;31.54;100260.44;10432135;28;20089;-74
2022/07/23 12:38:14;;;;;;;3.60;3.30;;;;;;;31.47;31.85;100253.47;10432103;28;20166;-74
2022/07/23 12:43:31;;;;;;;5.82;3.80;;;;;;;31.95;30.62;100255.47;10431125;28;20150;-74
2022/07/23 12:48:53;;;;;;;4.32;3.85;;;;;;;32.45;29.86;100251.34;10432460;28;20123;-74
2022/07/23 12:54:05;;;;;;;3.65;3.38;;;;;;;31.98;29.49;100250.28;10422593;28;20507;-74
2022/07/23 12:59:10;;;;;;;4.65;4.20;;;;;;;30.52;31.87;100264.00;10430672;28;20529;-75
2022/07/23 13:04:18;;;;;;;4.22;3.83;;;;;;;30.61;32.40;100259.72;10430350;28;20049;-74
2022/07/23 13:09:25;;;;;;;3.88;3.42;;;;;;;31.66;31.07;100259.44;10414260;28;20097;-74
2022/07/23 13:14:27;;;;;;;4.00;3.70;;;;;;;32.05;30.59;100261.88;10434155;28;20053;-74
2022/07/23 13:19:29;;;;;;;3.72;3.42;;;;;;;32.15;30.43;100263.88;10429240;28;20044;-75
2022/07/23 13:24:30;;;;;;;4.28;3.50;;;;;;;31.84;30.54;100260.09;10416081;28;20179;-74
2022/07/23 13:29:32;;;;;;;3.83;3.53;;;;;;;31.82;30.81;100254.03;10434483;28;20463;-74
2022/07/23 13:34:34;;;;;;;4.55;4.15;;;;;;;31.17;30.98;100254.88;10428456;28;20160;-73
2022/07/23 13:39:39;;;;;;;3.40;3.20;;;;;;;31.13;31.27;100252.91;10433194;28;20106;-73
2022/07/23 13:44:43;;;;;;;4.57;4.18;;;;;;;31.00;32.11;100246.75;10429921;28;20131;-75
2022/07/23 13:49:44;;;;;;;5.25;4.20;;;;;;;31.01;30.94;100239.31;10426264;28;20758;-73
2022/07/23 13:54:48;;;;;;;4.30;3.90;;;;;;;31.09;31.25;100241.59;10447400;28;20581;-75
2022/07/23 13:59:50;;;;;;;3.83;3.33;;;;;;;31.26;31.39;100235.97;10420224;28;20483;-75
2022/07/23 14:04:52;;;;;;;4.13;3.83;;;;;;;31.50;30.95;100239.19;10422818;28;20041;-74
2022/07/23 14:09:54;;;;;;;4.32;4.03;;;;;;;31.47;30.65;100242.47;10434872;28;20071;-74
2022/07/23 14:14:55;;;;;;;4.47;3.95;;;;;;;31.47;30.24;100236.97;10438604;28;20048;-74
2022/07/23 14:19:58;;;;;;;4.32;4.03;;;;;;;31.63;29.92;100237.09;10423219;28;20068;-75
2022/07/23 14:25:00;;;;;;;4.80;4.50;;;;;;;31.15;29.43;100245.22;10434982;28;20146;-75
2022/07/23 14:30:02;;;;;;;;;;;;;;;30.92;29.09;100241.66;10434840;28;20045;-75
2022/07/23 14:35:05;;;;;;;4.30;4.00;;;;;;;30.63;30.21;100249.34;10439279;28;20033;-74
2022/07/23 14:40:11;;;;;;;4.60;4.13;;;;;;;30.74;31.01;100237.34;10419273;28;20047;-74
2022/07/23 14:45:12;;;;;;;4.32;3.95;;;;;;;30.94;30.20;100239.50;10420557;28;20052;-75
2022/07/23 14:50:14;;;;;;;4.65;4.25;;;;;;;30.90;29.37;100237.53;10437020;28;20064;-75
2022/07/23 14:55:18;;;;;;;5.15;4.65;;;;;;;30.91;29.82;100234.53;10435348;28;20041;-74
2022/07/23 15:00:19;;;;;;;4.45;4.05;;;;;;;30.54;29.75;100240.72;10440879;28;20041;-74
2022/07/23 15:05:24;;;;;;;4.32;4.00;;;;;;;30.58;30.88;100230.88;10418196;28;20056;-72
2022/07/23 15:10:27;;;;;;;4.43;4.03;;;;;;;30.76;30.40;100234.34;10425961;28;20049;-73
2022/07/23 15:15:30;;;;;;;6.47;3.90;;;;;;;30.49;30.15;100238.75;10432990;28;20055;-75
2022/07/23 15:20:31;;;;;;;4.18;3.78;;;;;;;30.16;30.81;100234.16;10441274;28;20829;-75
2022/07/23 15:25:38;;;;;;;4.95;3.92;;;;;;;30.20;31.67;100240.81;10435486;28;20044;-75
2022/07/23 15:30:40;;;;;;;;;;;;;;;30.19;31.15;100244.66;10430559;28;20056;-75
2022/07/23 15:35:42;;;;;;;4.22;3.78;;;;;;;30.00;30.96;100238.63;10434309;28;20038;-76
2022/07/23 15:40:44;;;;;;;3.85;3.55;;;;;;;29.95;30.65;100233.91;10433714;28;20708;-75
2022/07/23 15:45:45;;;;;;;3.67;3.37;;;;;;;29.90;30.88;100224.75;10437992;28;20104;-74
2022/07/23 15:50:47;;;;;;;4.07;3.20;;;;;;;30.04;30.66;100225.22;10437345;28;20116;-74
2022/07/23 15:55:49;;;;;;;3.70;3.10;;;;;;;30.05;30.57;100222.22;10429832;28;20350;-75
2022/07/23 16:00:50;;;;;;;3.40;3.03;;;;;;;29.84;29.79;100221.09;10416088;28;20055;-75
2022/07/23 16:05:52;;;;;;;4.35;3.20;;;;;;;29.77;30.50;100237.72;10429451;28;20690;-74
2022/07/23 16:10:56;;;;;;;3.33;3.10;;;;;;;29.80;29.92;100220.75;10424897;28;20082;-73
2022/07/23 16:15:58;;;;;;;2.95;2.75;;;;;;;29.74;29.85;100227.25;10443463;28;20064;-73
2022/07/23 16:20:59;;;;;;;3.92;3.40;;;;;;;29.65;30.17;100223.28;10440230;28;20052;-73
2022/07/23 16:26:09;;;;;;;3.33;2.90;;;;;;;29.50;30.29;100226.63;10436426;28;20045;-74
2022/07/23 16:31:11;;;;;;;3.15;2.83;;;;;;;29.47;30.23;100220.78;10419828;28;20044;-73
2022/07/23 16:36:12;;;;;;;3.88;3.45;;;;;;;29.39;30.65;100228.34;10420168;28;20523;-74
2022/07/23 16:41:14;;;;;;;4.30;2.70;;;;;;;29.37;30.57;100235.16;10433685;28;20144;-73
2022/07/23 16:46:15;;;;;;;3.90;3.10;;;;;;;29.23;30.58;100237.38;10434065;28;20143;-76
2022/07/23 16:51:17;;;;;;;2.78;2.58;;;;;;;29.17;31.42;100233.72;10431181;28;20045;-75
2022/07/23 16:56:18;;;;;;;3.13;2.83;;;;;;;28.96;30.81;100220.72;10438535;28;20052;-72
2022/07/23 17:01:20;;;;;;;3.10;2.67;;;;;;;28.97;31.50;100244.31;10433389;28;20810;-73
2022/07/23 17:06:21;;;;;;;4.82;3.40;;;;;;;28.81;30.99;100238.53;10415935;28;20044;-70
2022/07/23 17:11:23;;;;;;;2.73;2.50;;;;;;;28.81;31.30;100249.50;10434962;28;20059;-74
2022/07/23 17:16:24;;;;;;;3.28;2.97;;;;;;;28.77;31.58;100251.06;10434608;28;20053;-74
2022/07/23 17:21:25;;;;;;;3.28;2.70;;;;;;;28.65;31.38;100237.41;10422216;28;20056;-75
2022/07/23 17:26:27;;;;;;;5.27;2.47;;;;;;;28.62;31.84;100246.09;10431465;28;20048;-74
2022/07/23 17:31:30;;;;;;;3.87;1.70;;;;;;;28.50;34.59;100251.59;10438190;28;20086;-77
2022/07/23 17:36:34;;;;;;;3.60;3.30;;;;;;;28.41;33.18;100253.03;10434009;28;20121;-75
2022/07/23 17:41:35;;;;;;;2.95;2.75;;;;;;;28.38;32.96;100262.56;10437127;28;20055;-75
2022/07/23 17:46:37;;;;;;;3.20;2.80;;;;;;;28.29;32.23;100260.47;10427914;28;20080;-75
2022/07/23 17:51:38;;;;;;;3.78;2.53;;;;;;;28.26;32.58;100267.22;10437044;28;20044;-75
2022/07/23 17:56:40;;;;;;;3.57;3.27;;;;;;;28.23;32.43;100266.91;10436563;28;20150;-74
2022/07/23 18:01:42;;;;;;;3.22;2.38;;;;;;;28.17;32.61;100274.97;10432685;28;20053;-74
2022/07/23 18:06:44;;;;;;;3.65;3.33;;;;;;;28.10;33.11;100276.19;10426873;28;20406;-75
2022/07/23 18:11:45;;;;;;;6.90;5.47;;;;;;;28.04;36.88;100284.28;10440140;28;20048;-75
2022/07/23 18:16:47;;;;;;;7.35;5.88;;;;;;;27.99;35.77;100284.16;10436886;28;20059;-74
2022/07/23 18:21:48;;;;;;;4.60;4.03;;;;;;;27.92;35.01;100288.03;10436838;28;20515;-74
2022/07/23 18:26:51;;;;;;;3.50;3.00;;;;;;;27.83;34.61;100296.63;10435643;28;20044;-74
2022/07/23 18:31:52;;;;;;;3.45;2.88;;;;;;;27.70;34.29;100291.38;10438222;28;20113;-75
2022/07/23 18:36:54;;;;;;;3.20;2.90;;;;;;;27.55;33.74;100299.16;10423331;28;20762;-77
2022/07/23 18:41:55;;;;;;;5.25;3.50;;;;;;;27.48;35.58;100305.56;10448355;28;20413;-77
2022/07/23 18:46:56;;;;;;;3.95;3.65;;;;;;;27.38;35.22;100304.50;10428055;28;20098;-77
2022/07/23 18:51:58;;;;;;;4.35;3.38;;;;;;;27.25;35.24;100306.31;10421280;28;20187;-75
2022/07/23 18:57:00;;;;;;;3.93;2.97;;;;;;;27.13;35.32;100309.03;10440024;28;20143;-75
2022/07/23 19:02:01;;;;;;;8.18;4.35;;;;;;;26.96;35.40;100316.19;10451153;28;20293;-74
2022/07/23 19:07:03;;;;;;;6.13;4.17;;;;;;;26.88;35.88;100316.50;10446906;28;20094;-75
2022/07/23 19:12:05;;;;;;;7.25;4.43;;;;;;;26.81;35.60;100322.91;10432151;28;20040;-76
2022/07/23 19:17:06;;;;;;;4.72;3.22;;;;;;;26.66;35.63;100325.13;10450343;28;20099;-73
2022/07/23 19:22:09;;;;;;;6.60;4.45;;;;;;;26.62;36.23;100340.31;10447235;28;20048;-76
2022/07/23 19:27:11;;;;;;;10.00;5.05;;;;;;;26.56;37.17;100343.97;10438446;28;20144;-76
2022/07/23 19:32:13;;;;;;;4.13;3.63;;;;;;;26.39;37.24;100351.88;10454436;28;20127;-75
2022/07/23 19:37:14;;;;;;;3.53;3.10;;;;;;;26.26;36.72;100366.50;10439702;28;20083;-76
2022/07/23 19:42:16;;;;;;;4.95;3.72;;;;;;;26.23;38.17;100367.78;10469589;28;20063;-76
2022/07/23 19:47:19;;;;;;;;;;;;;;;26.21;37.88;100378.09;10460985;28;20476;-75
2022/07/23 19:52:20;;;;;;;5.53;3.30;;;;;;;26.18;37.78;100383.16;10463499;28;19924;-76
2022/07/23 19:57:21;;;;;;;7.28;4.53;;;;;;;26.13;38.19;100385.72;10459102;28;20061;-74
2022/07/23 20:02:23;;;;;;;4.28;3.88;;;;;;;26.10;38.27;100392.44;10466759;28;20055;-77
2022/07/23 20:07:24;;;;;;;5.35;3.60;;;;;;;26.03;38.06;100392.53;10470176;28;21087;-75
2022/07/23 20:12:26;;;;;;;4.18;3.58;;;;;;;26.00;37.40;100394.84;10473513;28;20046;-76
2022/07/23 20:17:27;;;;;;;5.82;3.55;;;;;;;25.88;38.28;100394.69;10461979;28;20075;-75
2022/07/23 20:22:28;;;;;;;4.55;3.33;;;;;;;25.82;38.62;100401.88;10479639;28;20048;-76
2022/07/23 20:27:30;;;;;;;3.53;2.97;;;;;;;25.73;38.50;100400.44;10474955;28;20056;-77
2022/07/23 20:32:31;;;;;;;3.83;3.20;;;;;;;25.53;38.87;100395.13;10460640;28;20052;-74
2022/07/23 20:37:33;;;;;;;5.63;3.53;;;;;;;25.51;38.89;100394.53;10478081;28;20048;-78
2022/07/23 20:42:34;;;;;;;3.97;3.67;;;;;;;25.46;38.96;100397.06;10484729;28;20097;-76
2022/07/23 20:47:36;;;;;;;3.92;3.63;;;;;;;25.37;39.37;100396.47;10466515;28;20121;-77
2022/07/23 20:52:37;;;;;;;3.42;3.13;;;;;;;25.34;39.47;100408.66;10460068;28;20134;-76
2022/07/23 20:57:39;;;;;;;3.83;3.42;;;;;;;25.30;39.46;100407.41;10476126;28;20049;-75
2022/07/23 21:02:41;;;;;;;4.17;3.77;;;;;;;25.33;39.73;100420.59;10479693;28;20140;-74
2022/07/23 21:07:43;;;;;;;3.85;3.25;;;;;;;25.33;39.54;100420.59;10478507;28;20114;-75
2022/07/23 21:12:46;;;;;;;3.83;3.40;;;;;;;25.15;39.79;100444.97;10468899;28;20067;-76
2022/07/23 21:17:47;;;;;;;5.03;3.28;;;;;;;25.17;40.02;100448.31;10465254;28;20044;-75
2022/07/23 21:22:49;;;;;;;3.88;3.15;;;;;;;25.19;40.66;100451.63;10473725;28;20069;-74
2022/07/23 21:27:50;;;;;;;4.30;3.40;;;;;;;24.97;40.88;100460.09;10489847;28;20059;-74
2022/07/23 21:32:52;;;;;;;3.80;3.30;;;;;;;24.76;41.51;100457.66;10474598;28;20047;-74
2022/07/23 21:37:53;;;;;;;5.97;3.70;;;;;;;24.81;41.77;100460.56;10485539;28;20047;-75
2022/07/23 21:42:55;;;;;;;8.40;4.93;;;;;;;24.77;47.36;100464.75;10476386;28;20052;-78
2022/07/23 21:47:56;;;;;;;4.10;3.70;;;;;;;24.65;44.18;100462.69;10472741;28;20056;-77
2022/07/23 21:52:58;;;;;;;4.10;3.70;;;;;;;24.55;44.40;100467.69;10445921;28;20057;-76
2022/07/23 21:57:59;;;;;;;3.85;3.55;;;;;;;24.53;44.05;100480.66;10444814;28;20045;-74
2022/07/23 22:03:02;;;;;;;5.15;4.43;;;;;;;24.51;44.20;100488.19;10437545;28;20132;-76
2022/07/23 22:08:03;;;;;;;;;;;;;;;24.51;44.14;100482.75;10465184;28;20528;-73
2022/07/23 22:13:05;;;;;;;4.30;3.90;;;;;;;24.40;44.02;100481.50;10439596;28;19925;-73
2022/07/23 22:18:06;;;;;;;5.05;3.50;;;;;;;24.32;44.49;100479.81;10444073;28;20084;-73
2022/07/23 22:23:07;;;;;;;3.97;3.67;;;;;;;24.24;44.92;100492.78;10435158;28;20054;-76
2022/07/23 22:28:09;;;;;;;5.57;3.80;;;;;;;24.14;45.05;100490.47;10428727;28;20049;-75
2022/07/23 22:33:10;;;;;;;5.32;3.25;;;;;;;24.02;45.11;100500.28;10437588;28;20715;-75
2022/07/23 22:38:12;;;;;;;4.00;2.95;;;;;;;23.95;45.58;100494.84;10423062;28;20045;-74
2022/07/23 22:43:13;;;;;;;3.85;3.55;;;;;;;23.87;45.60;100495.88;10437672;28;20100;-77
2022/07/23 22:48:14;;;;;;;4.93;3.67;;;;;;;23.82;46.13;100503.75;10441307;28;20131;-75
2022/07/23 22:53:16;;;;;;;3.95;3.63;;;;;;;23.78;45.87;100510.63;10428121;28;20101;-76
2022/07/23 22:58:17;;;;;;;3.58;3.25;;;;;;;23.74;46.23;100496.63;10427237;28;20113;-74
2022/07/23 23:03:18;;;;;;;4.22;3.22;;;;;;;23.72;46.45;100495.16;10439734;28;20127;-73
2022/07/23 23:08:20;;;;;;;3.28;2.97;;;;;;;23.70;46.12;100489.09;10436899;28;20052;-74
2022/07/23 23:13:21;;;;;;;3.30;2.88;;;;;;;23.65;46.26;100489.69;10445487;28;20099;-73
2022/07/23 23:18:23;;;;;;;4.15;3.45;;;;;;;23.59;46.30;100487.81;10439119;28;20061;-74
2022/07/23 23:23:24;;;;;;;4.35;3.05;;;;;;;23.51;46.35;100485.25;10425595;28;20464;-71